Nikos Kolias

Recruteur - Apollon
3 Déc 2028
Dimanche
Processus

Personnalité

Adaptabilité (9) Ambition (1) Controverse (10) Loyauté (1) Pression (17) Professionnalisme (9) Sportivité (5) Tempérament (11)

Profil

Style d'entraînement Démocratique
Diplôme Continental C
Détermination 4
Gestion des joueurs 7
Motivation 11
Discipline 5
Satisfaction professionnelle
100%
Fatigue
0%
Rôle Recruteur
Salaire 51.4K p/s
Contrat 14.03.2030

Performance

Comportement Bon
Efficacité de l'entraînement
49%
Développement des joueurs
35%
Prévention des blessures
40%
Mise en place tactique
40%

Événements récents

A participé à une réunion de recrutement maintenant
A recommandé une cible de transfert maintenant
A recommandé une cible de transfert maintenant
A voté contre une cible de transfert maintenant
A recommandé une cible de transfert maintenant
A recommandé une cible de transfert maintenant
A observé un match maintenant
A observé un match maintenant

Suivi en cours

107
Joueur Club Statut Capacité Confiance Observé Dernière observation Dernier vote
Gideon Manaseh Ikorodu City Actif 92 / 106 40% 5 02.12.2028 -
Andrija Bulatović Chamois Niortais Actif 144 / 144 40% 2 02.12.2028 -
Maxim Radchenko Rostov Actif 93 / 100 40% 1 27.11.2028 -
Joaquín Salas Reading Actif 104 / 94 40% 1 27.11.2028 -
Joel Ezra Enyimba Actif 102 / 105 40% 5 25.11.2028 -
Malte Hallin GIF Sundsvall Actif 97 / 88 40% 1 25.11.2028 -
Jan Cedilnik Chikhura Actif 90 / 96 40% 2 24.11.2028 -
Alejandro Tapia Central Norte Actif 74 / 104 40% 3 24.11.2028 -
Noa Mikić Imotski Actif 114 / 127 40% 1 24.11.2028 -
Tiago Gordillo San Miguel Actif 96 / 102 40% 4 20.11.2028 -
Olivier Leroux Mouscron Actif 118 / 113 40% 2 17.11.2028 -
Nejc Brekalo NK Domzale Actif 111 / 102 40% 1 17.11.2028 -
Jack Shorrock Port Vale Actif 112 / 124 40% 1 17.11.2028 -
Mauro Matorras Central Norte Actif 101 / 88 40% 3 15.11.2028 -
Ramiro Villella Inter Actif 100 / 109 40% 1 15.11.2028 -
Marko Zebić Lucko Actif 113 / 113 40% 1 15.11.2028 -
Sergio Martínez Real Madrid Actif 119 / 118 40% 2 14.11.2028 -
Malte Heyde Esbjerg Actif 127 / 117 40% 1 14.11.2028 -
Martim Cunha Porto Actif 124 / 128 40% 4 13.11.2028 -
Mateo Caballero Defensor Sporting Actif 113 / 93 40% 1 13.11.2028 -
Riquelme Thompson-Jones Accrington Stanley Actif 113 / 122 40% 2 11.11.2028 -
Andrey Ivlev Nizhniy Novgorod Actif 119 / 121 40% 2 08.11.2028 -
Matías Magdaleno Estudiantes Actif 107 / 102 40% 1 02.10.2028 -
Yury Oyarzo Racing Actif 106 / 104 40% 1 08.09.2028 -
Agustín Medina Lanús Actif 109 / 129 40% 1 08.09.2028 -
Christos Kamtsis Aris Thessaloniki Actif 91 / 97 40% 1 06.09.2028 -
Aytor Herrera Mineros de Guayana Actif 79 / 85 40% 2 04.09.2028 -
Óscar Hinojosa Metropolitanos Actif 87 / 95 40% 1 24.08.2028 -
Francisco Arias Gimnasia y Esgrima Actif 92 / 94 40% 1 24.08.2028 -
Lautaro Dufur Juventud Actif 100 / 108 40% 1 24.08.2028 -
Estanislao López Colón Actif 83 / 96 40% 1 23.08.2028 -
Cheveyo Tsawa Club Brugge Actif 124 / 121 40% 1 23.08.2028 -
Abubakar Adams Aduana Stars Actif 80 / 76 40% 4 31.07.2028 -
Khama Mabunda Platinum Stars Actif 76 / 77 40% 3 31.07.2028 -
Hosea Michael Remo Stars Actif 101 / 87 40% 2 30.07.2028 -
Federico Matarán Giana Erminio Actif 97 / 107 40% 1 30.07.2028 -
Diego Vargas Universidad de Concepcion Actif 88 / 91 40% 1 30.07.2028 -
Kwesi Sorotu Badori Berekum Chelsea Actif 101 / 116 40% 2 29.07.2028 -
Mehdi Noorafkan Padideh Actif 85 / 120 40% 1 29.07.2028 -
Duje Slatina Trapani Actif 89 / 94 40% 1 29.07.2028 -
Miguel Figueiredo Benfica Actif 113 / 138 40% 1 28.07.2028 -
Seydou Fofana Pacos de Ferreira Actif 98 / 123 40% 1 28.07.2028 -
Anderson Acevedo Bogota Actif 76 / 84 40% 1 28.07.2028 -
Simone Suppa Virtus Verona Actif 98 / 83 40% 1 21.07.2028 -
Jan Bürger Northampton Town Actif 119 / 122 40% 2 18.07.2028 -
Lucas Camejo River Plate Actif 88 / 89 40% 1 17.07.2028 -
Bence Szakos Aris Actif 107 / 94 40% 1 17.07.2028 -
Bernardo Lima Porto Actif 103 / 132 40% 5 14.07.2028 -
Alexandr Lubnin Zenit Penza Actif 87 / 87 40% 1 14.07.2028 -
Jamal Iddrissou Pergolettese Actif 116 / 131 40% 2 12.07.2028 -
Clayton Diandy Al-Diriyah Actif 104 / 122 40% 3 12.07.2028 -
Valentino Huertas Morón Actif 110 / 95 40% 1 12.07.2028 -
Ahmed Khaled Paralimni Actif 101 / 117 40% 4 10.07.2028 -
Lamine Bèye Portimonense Actif 111 / 116 40% 2 10.07.2028 -
Fletcher Boyd Accrington Stanley Actif 106 / 102 40% 4 09.07.2028 -
Francesco Ferrara Latina Actif 92 / 87 40% 2 09.07.2028 -
Ryan Kavuma-McQueen Accrington Stanley Actif 133 / 122 40% 4 08.07.2028 -
Edison Gruezo Guadalajara Actif 110 / 108 40% 2 08.07.2028 -
Luke Brooke-Smith Chesterfield Actif 90 / 120 40% 3 06.07.2028 -
Igor Tyjon Barrow AFC Actif 114 / 117 40% 5 06.07.2028 -
Paolo Dorini Estudiantes de Merida Actif 82 / 103 40% 1 06.07.2028 -
Juan Cejas Ethnikos Achnas Refusé 111 / 115 65% 2 05.07.2028 Refuser
Andrea Luongo Trento Actif 112 / 101 40% 3 05.07.2028 -
Marco Tumminello Benevento Actif 111 / 125 40% 1 05.07.2028 -
Tyler Fletcher Rotherham United Actif 121 / 133 40% 1 05.07.2028 -
Daniel Barrea Godoy Cruz Actif 115 / 117 40% 1 03.07.2028 -
Kyle Wootton Stockport County Actif 123 / 136 40% 1 03.07.2028 -
Augusto Bando Ascoli Actif 111 / 122 40% 1 03.07.2028 -
Emanuele Schimmenti Potenza Actif 115 / 109 40% 1 01.07.2028 -
Tobiáš Pališčák Zlin Actif 108 / 105 40% 1 01.07.2028 -
Tobías Ramírez River Plate Actif 131 / 122 40% 1 01.07.2028 -
Gabriele Gori Ascoli Actif 121 / 126 40% 1 29.06.2028 -
Leandro Antunes Al-Riyadh Actif 132 / 120 40% 1 26.06.2028 -
Baba N'Diaye Chaika Actif 94 / 90 40% 2 07.06.2028 -
Lisandro Piñero Banfield Actif 125 / 114 40% 1 07.06.2028 -
Tomás Peixoto Porto Actif 99 / 120 40% 3 06.06.2028 -
Leo Pecover Swindon Town Actif 105 / 116 40% 3 06.06.2028 -
Paulo Iago Sporting CP Actif 99 / 107 40% 2 05.06.2028 -
Francisco Fernandes Porto Actif 99 / 98 40% 2 05.06.2028 -
Georgy Makarov Dinamo St Petersburg Actif 78 / 97 40% 1 04.06.2028 -
Ryan McAidoo Oldham Athletic Actif 115 / 119 40% 6 02.06.2028 -
Reece Oxford Shrewsbury Town Actif 112 / 117 40% 1 31.05.2028 -
Hayden Matthews Tranmere Rovers Actif 113 / 105 40% 1 31.05.2028 -
Adam Senior Barnet Actif 101 / 103 40% 1 31.05.2028 -
João Abreu Porto Actif 95 / 112 40% 5 28.05.2028 -
Gabe Forsyth Colchester United Actif 102 / 102 40% 3 28.05.2028 -
Matvey Ivanov Zenit Actif 77 / 86 40% 3 20.05.2028 -
Kwandile Gumemde US Bougouni Actif 76 / 88 40% 2 19.05.2028 -
Eduard Ihnatov Ospitaletto Actif 101 / 93 40% 1 18.05.2028 -
İsak Vural Audace Cerignola Actif 111 / 113 40% 3 07.05.2028 -
Mads Abrahamsen Zenit Penza Actif 99 / 88 40% 2 07.05.2028 -
Jeremías Merlo Gimnasia La Plata Actif 122 / 112 40% 1 04.05.2028 -
Gaël Lafont Dolomiti Bellunesi Actif 98 / 113 40% 2 30.04.2028 -
Nathan Mbala FC Metz Actif 95 / 105 40% 2 21.04.2028 -
Kiani Inge Groningen Actif 101 / 113 40% 1 21.04.2028 -
Luca Scarlato Perugia Actif 107 / 126 40% 2 13.04.2028 -
Jake Evans Crewe Alexandra Actif 102 / 132 40% 3 07.04.2028 -
Vasco Sousa Porto Actif 75 / 88 40% 1 07.04.2028 -
Ben Broggio Mansfield Town Actif 107 / 118 40% 3 05.04.2028 -
Gabriel Mec Feirense Actif 114 / 138 40% 2 02.04.2028 -
Gabriele Bertolini Vicenza Actif 94 / 118 40% 1 30.03.2028 -
Lander Astiazarán Real Sociedad Actif 109 / 113 40% 1 27.03.2028 -
Mamoutou Berthé US Bougouba Actif 115 / 125 40% 1 19.03.2028 -
Dimitris Theodorou Anorthosis Actif 100 / 109 65% 1 17.01.2028 Approuver
Stevan Jovetić Actif 120 / 116 65% 1 14.06.2027 Approuver
Andreas Karamanolis Anorthosis Actif 101 / 111 65% 1 10.08.2026 Approuver
Fernando Forestieri AEL Actif 129 / 133 65% 1 03.08.2026 Approuver